EDT,Max TemperatureF,Mean TemperatureF,Min TemperatureF,Max Dew PointF,MeanDew PointF,Min DewpointF,Max Humidity, Mean Humidity, Min Humidity, Max Sea Level PressureIn, Mean Sea Level PressureIn, Min Sea Level PressureIn, Max VisibilityMiles, Mean VisibilityMiles, Min VisibilityMiles, Max Wind SpeedMPH, Mean Wind SpeedMPH, Max Gust SpeedMPH,PrecipitationIn, CloudCover, Events, WindDirDegrees
2012-4-1,83,68,53,67,56,52,100,70,40,29.90,29.86,29.77,10,6,0,16,4,22,0.00,2,Fog,203
2012-4-2,88,74,59,65,61,58,97,70,42,29.88,29.83,29.77,10,10,10,14,3,17,0.00,3,,215
2012-4-3,87,75,63,64,59,49,93,63,32,29.96,29.89,29.83,10,10,10,14,2,18,0.00,4,,217
2012-4-4,83,72,60,61,58,55,97,69,40,29.89,29.80,29.70,10,10,10,15,4,20,0.00,4,,225
2012-4-5,77,68,59,61,58,55,90,70,50,29.77,29.71,29.62,10,9,5,9,3,21,0.48,5,Rain-Thunderstorm,24
2012-4-6,70,60,50,57,46,34,93,61,28,30.11,29.91,29.76,10,10,6,16,9,24,T,4,Rain,10
2012-4-7,75,62,48,49,41,33,80,52,23,30.27,30.19,30.13,10,10,10,6,1,,0.00,2,,18
2012-4-8,79,65,50,53,48,45,89,63,36,30.22,30.16,30.09,10,10,10,14,4,,0.00,5,,328
2012-4-9,75,60,45,47,40,32,86,54,21,30.15,30.10,30.03,10,10,10,15,3,23,0.00,1,,264
2012-4-10,71,59,46,46,41,32,86,56,25,30.08,30.04,29.99,10,10,10,20,6,25,0.00,3,,285
2012-4-11,64,52,40,34,28,22,76,48,20,30.20,30.11,30.06,10,10,10,16,8,22,0.00,0,,338
2012-4-12,65,52,39,39,31,26,76,51,25,30.29,30.21,30.13,10,10,10,13,3,17,0.00,1,,61
2012-4-13,73,57,40,46,39,32,89,57,24,30.25,30.19,30.15,10,10,10,8,1,13,0.00,4,,100
2012-4-14,78,63,48,51,47,44,86,60,33,30.28,30.19,30.11,10,10,10,17,6,24,0.00,5,,175
2012-4-15,81,68,54,59,54,49,86,64,42,30.18,30.11,30.05,10,10,10,18,7,24,0.00,3,,171
2012-4-16,77,70,63,65,62,57,87,74,60,30.19,30.13,30.05,10,10,1,21,7,26,0.06,5,Rain,180
2012-4-17,71,65,58,61,56,48,93,78,63,30.22,30.18,30.13,10,10,10,17,8,23,0.04,7,Rain,357
2012-4-18,63,59,55,56,54,49,87,82,77,30.12,30.09,30.04,10,10,7,13,5,16,0.11,7,Rain,35
2012-4-19,75,63,51,56,53,48,100,73,46,30.09,30.04,29.94,10,7,0,10,3,13,0.00,4,Fog,30
2012-4-20,73,65,56,59,57,53,93,77,61,29.97,29.91,29.82,10,10,8,13,5,16,T,6,,170
2012-4-21,75,65,55,61,56,48,93,73,53,29.84,29.80,29.73,10,8,4,18,7,23,T,7,,310
2012-4-22,63,55,47,46,39,34,77,56,34,29.84,29.79,29.74,10,10,10,23,13,30,0.00,6,,335
2012-4-23,61,52,42,37,29,22,76,50,23,29.91,29.87,29.82,10,10,10,24,12,35,0.00,3,,323
2012-4-24,65,53,41,50,38,29,76,56,36,29.94,29.90,29.87,10,10,10,18,4,25,T,5,Rain,256
2012-4-25,83,67,50,59,52,45,86,64,42,29.89,29.85,29.80,10,10,10,20,8,33,0.00,5,,199
2012-4-26,81,75,68,65,60,55,79,67,54,29.93,29.86,29.83,10,10,10,21,12,26,0.00,5,,225
2012-4-27,75,70,65,65,62,56,93,77,60,30.06,30.00,29.91,10,10,4,13,4,16,0.00,7,,12
2012-4-28,83,72,61,64,60,53,100,69,37,30.10,30.04,29.99,10,6,0,17,5,21,0.00,4,Fog,186
2012-4-29,87,73,58,65,60,56,90,64,37,30.14,30.10,30.06,10,10,9,8,1,12,0.00,4,Fog,175
2012-4-30,89,75,60,63,60,56,93,63,32,30.16,30.09,30.04,10,10,10,17,4,22,0.00,4,Fog,205